This is the latest recevied weather packets stored in our database for station/object KO4RJX-11. If no packets are shown the sender has not sent any weather packets the latest 10 day(s).
| Time | Temp. | Humidity | Pressure | Rain* | Wind** | Luminosity | Snow |
|---|---|---|---|---|---|---|---|
| 1777943318 | 20.56° C | 42% | 1009.7 hPa | 0 mm | - | - | - |
| 1777942918 | 21.11° C | 40% | 1009.7 hPa | 0 mm | - | - | - |
| 1777941187 | 21.67° C | 37% | 1009 hPa | 0 mm | - | - | - |
| 1777937587 | 23.33° C | 32% | 1008.6 hPa | 0 mm | - | - | - |
| 1777936387 | 23.89° C | 31% | 1008.6 hPa | 0 mm | - | - | - |
| 1777934117 | 25° C | 28% | 1008.6 hPa | 0 mm | - | - | - |
| 1777927587 | 25.56° C | 25% | 1008.6 hPa | 0 mm | - | - | - |
| 1777925587 | 26.11° C | 24% | 1009 hPa | 0 mm | - | - | - |
| 1777923587 | 25.56° C | 23% | 1009 hPa | 0 mm | - | - | - |
| 1777920787 | 25.56° C | 25% | 1009.7 hPa | 0 mm | - | - | - |
| 1777920388 | 25.56° C | 25% | 1009.7 hPa | 0 mm | - | - | - |
| 1777920119 | 25° C | 27% | 1010 hPa | 0 mm | - | - | - |
| 1777918117 | 24.44° C | 30% | 1010 hPa | 0 mm | - | - | - |
| 1777914787 | 23.89° C | 30% | 1010.7 hPa | 0 mm | - | - | - |
| 1777908395 | 21.11° C | 41% | 1011.7 hPa | 0 mm | - | - | - |
| 1777905994 | 19.44° C | 49% | 1012 hPa | 0 mm | - | - | - |
| 1777904395 | 18.89° C | 53% | 1012 hPa | 0 mm | - | - | - |
| 1777901594 | 16.67° C | 61% | 1012.4 hPa | 0 mm | - | - | - |
| 1777898794 | 13.89° C | 74% | 1012 hPa | 0 mm | - | - | - |
| 1777897994 | 12.78° C | 77% | 1012.4 hPa | 0 mm | - | - | - |
| 1777896794 | 12.22° C | 80% | 1012.4 hPa | 0 mm | - | - | - |
| 1777895994 | 11.67° C | 81% | 1012.4 hPa | 0 mm | - | - | - |
| 1777893994 | 10° C | 88% | 1012.4 hPa | 0 mm | - | - | - |
| 1777893594 | 10° C | 89% | 1012.4 hPa | 0 mm | - | - | - |
| 1777891994 | 8.89° C | 92% | 1012.4 hPa | 0 mm | - | - | - |
* Rain since midnight (hover to see other rain measurements)
** Current wind speed in m/s (hover to see current wind gust speed)